sensor_id;sensor_type;location;lat;lon;timestamp;P1;durP1;ratioP1;P2;durP2;ratioP2
11829;SDS011;5972;42.134;24.718;2023-09-18T00:01:12;6.25;;;3.55;;
11829;SDS011;5972;42.134;24.718;2023-09-18T00:03:39;5.32;;;3.13;;
11829;SDS011;5972;42.134;24.718;2023-09-18T00:06:06;7.32;;;3.65;;
11829;SDS011;5972;42.134;24.718;2023-09-18T00:08:34;6.55;;;3.60;;
11829;SDS011;5972;42.134;24.718;2023-09-18T00:11:00;6.70;;;3.60;;
11829;SDS011;5972;42.134;24.718;2023-09-18T00:13:28;6.07;;;3.63;;
11829;SDS011;5972;42.134;24.718;2023-09-18T00:15:55;5.47;;;3.47;;
11829;SDS011;5972;42.134;24.718;2023-09-18T00:18:24;7.65;;;3.60;;
11829;SDS011;5972;42.134;24.718;2023-09-18T00:20:51;4.47;;;3.60;;
11829;SDS011;5972;42.134;24.718;2023-09-18T00:23:18;10.45;;;3.75;;
11829;SDS011;5972;42.134;24.718;2023-09-18T00:25:45;4.55;;;3.53;;
11829;SDS011;5972;42.134;24.718;2023-09-18T00:28:12;6.97;;;4.20;;
11829;SDS011;5972;42.134;24.718;2023-09-18T00:30:42;5.28;;;4.00;;
11829;SDS011;5972;42.134;24.718;2023-09-18T00:33:13;5.25;;;4.13;;
11829;SDS011;5972;42.134;24.718;2023-09-18T00:35:39;6.10;;;3.92;;
11829;SDS011;5972;42.134;24.718;2023-09-18T00:38:06;7.25;;;4.43;;
11829;SDS011;5972;42.134;24.718;2023-09-18T00:40:34;5.60;;;3.88;;
11829;SDS011;5972;42.134;24.718;2023-09-18T00:43:01;5.72;;;3.83;;
11829;SDS011;5972;42.134;24.718;2023-09-18T00:45:28;6.00;;;3.80;;
11829;SDS011;5972;42.134;24.718;2023-09-18T00:47:56;6.93;;;3.63;;
11829;SDS011;5972;42.134;24.718;2023-09-18T00:50:23;7.57;;;4.35;;
11829;SDS011;5972;42.134;24.718;2023-09-18T00:52:51;5.13;;;3.83;;
11829;SDS011;5972;42.134;24.718;2023-09-18T00:55:18;5.93;;;4.13;;
11829;SDS011;5972;42.134;24.718;2023-09-18T00:57:45;4.75;;;4.15;;
11829;SDS011;5972;42.134;24.718;2023-09-18T01:00:12;9.93;;;4.55;;
11829;SDS011;5972;42.134;24.718;2023-09-18T01:02:42;7.55;;;4.10;;
11829;SDS011;5972;42.134;24.718;2023-09-18T01:05:12;5.80;;;3.88;;
11829;SDS011;5972;42.134;24.718;2023-09-18T01:07:41;5.82;;;3.83;;
11829;SDS011;5972;42.134;24.718;2023-09-18T01:10:09;9.45;;;3.90;;
11829;SDS011;5972;42.134;24.718;2023-09-18T01:12:36;7.97;;;3.45;;
11829;SDS011;5972;42.134;24.718;2023-09-18T01:15:10;4.72;;;3.40;;
11829;SDS011;5972;42.134;24.718;2023-09-18T01:17:41;8.23;;;4.07;;
11829;SDS011;5972;42.134;24.718;2023-09-18T01:20:09;9.52;;;3.63;;
11829;SDS011;5972;42.134;24.718;2023-09-18T01:22:40;5.25;;;3.28;;
11829;SDS011;5972;42.134;24.718;2023-09-18T01:25:08;4.93;;;3.30;;
11829;SDS011;5972;42.134;24.718;2023-09-18T01:27:35;5.53;;;3.13;;
11829;SDS011;5972;42.134;24.718;2023-09-18T01:30:02;8.30;;;3.55;;
11829;SDS011;5972;42.134;24.718;2023-09-18T01:32:30;4.30;;;3.22;;
11829;SDS011;5972;42.134;24.718;2023-09-18T01:34:59;5.93;;;3.63;;
11829;SDS011;5972;42.134;24.718;2023-09-18T01:37:29;5.63;;;3.10;;
11829;SDS011;5972;42.134;24.718;2023-09-18T01:39:59;5.15;;;3.40;;
11829;SDS011;5972;42.134;24.718;2023-09-18T01:42:26;7.75;;;3.58;;
11829;SDS011;5972;42.134;24.718;2023-09-18T01:44:54;5.78;;;3.13;;
11829;SDS011;5972;42.134;24.718;2023-09-18T01:47:21;6.43;;;3.08;;
11829;SDS011;5972;42.134;24.718;2023-09-18T01:49:49;6.05;;;3.45;;
11829;SDS011;5972;42.134;24.718;2023-09-18T01:52:16;7.05;;;3.00;;
11829;SDS011;5972;42.134;24.718;2023-09-18T01:54:43;6.90;;;2.90;;
11829;SDS011;5972;42.134;24.718;2023-09-18T01:57:11;6.95;;;3.28;;
11829;SDS011;5972;42.134;24.718;2023-09-18T01:59:38;4.80;;;2.85;;
11829;SDS011;5972;42.134;24.718;2023-09-18T02:02:07;3.60;;;2.90;;
11829;SDS011;5972;42.134;24.718;2023-09-18T02:04:34;4.45;;;3.17;;
11829;SDS011;5972;42.134;24.718;2023-09-18T02:07:02;4.95;;;2.97;;
11829;SDS011;5972;42.134;24.718;2023-09-18T02:09:29;9.05;;;3.05;;
11829;SDS011;5972;42.134;24.718;2023-09-18T02:11:56;7.18;;;2.97;;
11829;SDS011;5972;42.134;24.718;2023-09-18T02:14:24;7.22;;;3.63;;
11829;SDS011;5972;42.134;24.718;2023-09-18T02:16:51;4.80;;;3.13;;
11829;SDS011;5972;42.134;24.718;2023-09-18T02:19:19;4.50;;;3.17;;
11829;SDS011;5972;42.134;24.718;2023-09-18T02:21:45;7.55;;;3.75;;
11829;SDS011;5972;42.134;24.718;2023-09-18T02:24:12;6.15;;;3.10;;
11829;SDS011;5972;42.134;24.718;2023-09-18T02:26:39;6.57;;;3.30;;
11829;SDS011;5972;42.134;24.718;2023-09-18T02:29:07;5.03;;;3.25;;
11829;SDS011;5972;42.134;24.718;2023-09-18T02:31:37;6.75;;;3.30;;
11829;SDS011;5972;42.134;24.718;2023-09-18T02:34:04;7.68;;;3.65;;
11829;SDS011;5972;42.134;24.718;2023-09-18T02:36:32;6.50;;;3.10;;
11829;SDS011;5972;42.134;24.718;2023-09-18T02:38:59;6.78;;;3.17;;
11829;SDS011;5972;42.134;24.718;2023-09-18T02:41:26;7.20;;;3.38;;
11829;SDS011;5972;42.134;24.718;2023-09-18T02:43:52;5.57;;;2.97;;
11829;SDS011;5972;42.134;24.718;2023-09-18T02:46:19;9.27;;;3.42;;
11829;SDS011;5972;42.134;24.718;2023-09-18T02:48:47;6.30;;;3.40;;
11829;SDS011;5972;42.134;24.718;2023-09-18T02:51:14;10.00;;;3.45;;
11829;SDS011;5972;42.134;24.718;2023-09-18T02:53:41;7.43;;;3.38;;
11829;SDS011;5972;42.134;24.718;2023-09-18T02:56:08;5.25;;;3.42;;
11829;SDS011;5972;42.134;24.718;2023-09-18T02:58:35;3.30;;;2.97;;
11829;SDS011;5972;42.134;24.718;2023-09-18T03:01:02;4.90;;;3.17;;
11829;SDS011;5972;42.134;24.718;2023-09-18T03:03:30;6.63;;;2.97;;
11829;SDS011;5972;42.134;24.718;2023-09-18T03:06:01;9.95;;;3.45;;
11829;SDS011;5972;42.134;24.718;2023-09-18T03:08:29;5.72;;;3.08;;
11829;SDS011;5972;42.134;24.718;2023-09-18T03:10:56;5.35;;;3.28;;
11829;SDS011;5972;42.134;24.718;2023-09-18T03:13:23;12.45;;;3.92;;
11829;SDS011;5972;42.134;24.718;2023-09-18T03:15:49;4.45;;;2.97;;
11829;SDS011;5972;42.134;24.718;2023-09-18T03:18:16;6.03;;;3.17;;
11829;SDS011;5972;42.134;24.718;2023-09-18T03:20:43;4.82;;;3.10;;
11829;SDS011;5972;42.134;24.718;2023-09-18T03:23:11;9.65;;;3.42;;
11829;SDS011;5972;42.134;24.718;2023-09-18T03:25:39;8.70;;;3.60;;
11829;SDS011;5972;42.134;24.718;2023-09-18T03:28:06;10.23;;;4.10;;
11829;SDS011;5972;42.134;24.718;2023-09-18T03:30:33;4.57;;;3.28;;
11829;SDS011;5972;42.134;24.718;2023-09-18T03:32:59;6.53;;;3.20;;
11829;SDS011;5972;42.134;24.718;2023-09-18T03:35:28;7.13;;;3.20;;
11829;SDS011;5972;42.134;24.718;2023-09-18T03:37:55;5.25;;;2.85;;
11829;SDS011;5972;42.134;24.718;2023-09-18T03:40:23;5.55;;;3.67;;
11829;SDS011;5972;42.134;24.718;2023-09-18T03:42:50;5.78;;;3.30;;
11829;SDS011;5972;42.134;24.718;2023-09-18T03:45:16;8.15;;;3.72;;
11829;SDS011;5972;42.134;24.718;2023-09-18T03:47:44;9.07;;;3.55;;
11829;SDS011;5972;42.134;24.718;2023-09-18T03:50:11;7.57;;;3.40;;
11829;SDS011;5972;42.134;24.718;2023-09-18T03:52:39;6.63;;;3.50;;
11829;SDS011;5972;42.134;24.718;2023-09-18T03:55:06;6.45;;;3.58;;
11829;SDS011;5972;42.134;24.718;2023-09-18T03:57:35;7.63;;;3.58;;
11829;SDS011;5972;42.134;24.718;2023-09-18T04:00:03;7.50;;;3.20;;
11829;SDS011;5972;42.134;24.718;2023-09-18T04:02:32;7.82;;;3.53;;
11829;SDS011;5972;42.134;24.718;2023-09-18T04:05:00;6.00;;;3.15;;
11829;SDS011;5972;42.134;24.718;2023-09-18T04:07:27;6.07;;;3.25;;
11829;SDS011;5972;42.134;24.718;2023-09-18T04:09:53;4.85;;;3.05;;
11829;SDS011;5972;42.134;24.718;2023-09-18T04:12:21;6.35;;;3.35;;
11829;SDS011;5972;42.134;24.718;2023-09-18T04:14:49;5.78;;;3.35;;
11829;SDS011;5972;42.134;24.718;2023-09-18T04:17:16;5.97;;;3.22;;
11829;SDS011;5972;42.134;24.718;2023-09-18T04:19:43;8.60;;;2.97;;
11829;SDS011;5972;42.134;24.718;2023-09-18T04:22:10;6.85;;;3.50;;
11829;SDS011;5972;42.134;24.718;2023-09-18T04:24:37;7.90;;;3.72;;
11829;SDS011;5972;42.134;24.718;2023-09-18T04:27:03;7.15;;;3.05;;
11829;SDS011;5972;42.134;24.718;2023-09-18T04:29:30;9.75;;;3.67;;
11829;SDS011;5972;42.134;24.718;2023-09-18T04:31:58;14.35;;;4.38;;
11829;SDS011;5972;42.134;24.718;2023-09-18T04:34:25;8.13;;;3.88;;
11829;SDS011;5972;42.134;24.718;2023-09-18T04:36:52;8.93;;;4.53;;
11829;SDS011;5972;42.134;24.718;2023-09-18T04:39:18;7.35;;;4.75;;
11829;SDS011;5972;42.134;24.718;2023-09-18T04:41:46;9.68;;;4.38;;
11829;SDS011;5972;42.134;24.718;2023-09-18T04:44:13;11.73;;;4.80;;
11829;SDS011;5972;42.134;24.718;2023-09-18T04:46:39;15.77;;;4.75;;
11829;SDS011;5972;42.134;24.718;2023-09-18T04:49:09;12.82;;;5.28;;
11829;SDS011;5972;42.134;24.718;2023-09-18T04:51:37;15.05;;;5.05;;
11829;SDS011;5972;42.134;24.718;2023-09-18T04:54:04;18.67;;;5.28;;
11829;SDS011;5972;42.134;24.718;2023-09-18T04:56:32;20.75;;;5.30;;
11829;SDS011;5972;42.134;24.718;2023-09-18T04:58:59;14.48;;;5.00;;
11829;SDS011;5972;42.134;24.718;2023-09-18T05:01:25;9.93;;;4.93;;
11829;SDS011;5972;42.134;24.718;2023-09-18T05:03:52;12.70;;;5.38;;
11829;SDS011;5972;42.134;24.718;2023-09-18T05:06:21;17.27;;;5.22;;
11829;SDS011;5972;42.134;24.718;2023-09-18T05:08:47;12.85;;;5.93;;
11829;SDS011;5972;42.134;24.718;2023-09-18T05:11:14;10.35;;;6.00;;
11829;SDS011;5972;42.134;24.718;2023-09-18T05:13:41;11.27;;;5.55;;
11829;SDS011;5972;42.134;24.718;2023-09-18T05:16:08;12.88;;;5.80;;
11829;SDS011;5972;42.134;24.718;2023-09-18T05:18:35;11.90;;;5.82;;
11829;SDS011;5972;42.134;24.718;2023-09-18T05:21:03;10.05;;;5.78;;
11829;SDS011;5972;42.134;24.718;2023-09-18T05:23:31;12.70;;;5.22;;
11829;SDS011;5972;42.134;24.718;2023-09-18T05:25:59;11.98;;;5.00;;
11829;SDS011;5972;42.134;24.718;2023-09-18T05:28:26;14.27;;;5.35;;
11829;SDS011;5972;42.134;24.718;2023-09-18T05:30:52;8.80;;;4.93;;
11829;SDS011;5972;42.134;24.718;2023-09-18T05:33:20;9.10;;;5.20;;
11829;SDS011;5972;42.134;24.718;2023-09-18T05:35:46;7.97;;;4.45;;
11829;SDS011;5972;42.134;24.718;2023-09-18T05:38:14;10.98;;;4.70;;
11829;SDS011;5972;42.134;24.718;2023-09-18T05:40:44;9.90;;;4.75;;
11829;SDS011;5972;42.134;24.718;2023-09-18T05:43:11;7.97;;;3.50;;
11829;SDS011;5972;42.134;24.718;2023-09-18T05:45:38;6.70;;;3.80;;
11829;SDS011;5972;42.134;24.718;2023-09-18T05:48:05;8.57;;;4.07;;
11829;SDS011;5972;42.134;24.718;2023-09-18T05:50:33;6.65;;;3.58;;
11829;SDS011;5972;42.134;24.718;2023-09-18T05:53:01;8.40;;;3.95;;
11829;SDS011;5972;42.134;24.718;2023-09-18T05:55:29;14.88;;;3.85;;
11829;SDS011;5972;42.134;24.718;2023-09-18T05:57:57;11.02;;;3.50;;
11829;SDS011;5972;42.134;24.718;2023-09-18T06:00:24;7.03;;;3.40;;
11829;SDS011;5972;42.134;24.718;2023-09-18T06:02:51;5.05;;;3.05;;
11829;SDS011;5972;42.134;24.718;2023-09-18T06:05:18;7.47;;;3.22;;
11829;SDS011;5972;42.134;24.718;2023-09-18T06:07:46;8.95;;;2.83;;
11829;SDS011;5972;42.134;24.718;2023-09-18T06:10:13;5.32;;;3.15;;
11829;SDS011;5972;42.134;24.718;2023-09-18T06:12:41;8.80;;;3.00;;
11829;SDS011;5972;42.134;24.718;2023-09-18T06:15:10;7.80;;;3.10;;
11829;SDS011;5972;42.134;24.718;2023-09-18T06:17:37;6.95;;;2.90;;
11829;SDS011;5972;42.134;24.718;2023-09-18T06:20:05;6.20;;;2.70;;
11829;SDS011;5972;42.134;24.718;2023-09-18T06:22:35;2.78;;;2.33;;
11829;SDS011;5972;42.134;24.718;2023-09-18T06:25:03;6.95;;;2.88;;
11829;SDS011;5972;42.134;24.718;2023-09-18T06:27:30;3.78;;;2.45;;
11829;SDS011;5972;42.134;24.718;2023-09-18T06:29:57;7.20;;;2.60;;
11829;SDS011;5972;42.134;24.718;2023-09-18T06:32:25;5.53;;;2.05;;
11829;SDS011;5972;42.134;24.718;2023-09-18T06:34:52;3.75;;;2.22;;
11829;SDS011;5972;42.134;24.718;2023-09-18T06:37:19;2.92;;;2.50;;
11829;SDS011;5972;42.134;24.718;2023-09-18T06:39:46;3.97;;;2.50;;
11829;SDS011;5972;42.134;24.718;2023-09-18T06:42:13;4.93;;;2.30;;
11829;SDS011;5972;42.134;24.718;2023-09-18T06:44:39;5.82;;;2.65;;
11829;SDS011;5972;42.134;24.718;2023-09-18T06:47:06;5.25;;;2.55;;
11829;SDS011;5972;42.134;24.718;2023-09-18T06:49:34;4.20;;;2.58;;
11829;SDS011;5972;42.134;24.718;2023-09-18T06:52:02;4.60;;;2.50;;
11829;SDS011;5972;42.134;24.718;2023-09-18T06:54:30;8.07;;;2.70;;
11829;SDS011;5972;42.134;24.718;2023-09-18T06:56:56;5.53;;;2.50;;
11829;SDS011;5972;42.134;24.718;2023-09-18T06:59:23;5.45;;;2.60;;
11829;SDS011;5972;42.134;24.718;2023-09-18T07:01:50;4.93;;;2.78;;
11829;SDS011;5972;42.134;24.718;2023-09-18T07:04:17;5.05;;;2.63;;
11829;SDS011;5972;42.134;24.718;2023-09-18T07:06:45;6.55;;;2.80;;
11829;SDS011;5972;42.134;24.718;2023-09-18T07:09:12;6.72;;;2.85;;
11829;SDS011;5972;42.134;24.718;2023-09-18T07:11:40;3.97;;;2.20;;
11829;SDS011;5972;42.134;24.718;2023-09-18T07:14:06;4.90;;;2.90;;
11829;SDS011;5972;42.134;24.718;2023-09-18T07:16:33;8.60;;;2.88;;
11829;SDS011;5972;42.134;24.718;2023-09-18T07:19:00;6.07;;;2.60;;
11829;SDS011;5972;42.134;24.718;2023-09-18T07:21:29;4.05;;;2.67;;
11829;SDS011;5972;42.134;24.718;2023-09-18T07:23:58;6.57;;;2.55;;
11829;SDS011;5972;42.134;24.718;2023-09-18T07:26:24;4.72;;;2.70;;
11829;SDS011;5972;42.134;24.718;2023-09-18T07:28:51;10.93;;;3.03;;
11829;SDS011;5972;42.134;24.718;2023-09-18T07:31:18;4.90;;;2.50;;
11829;SDS011;5972;42.134;24.718;2023-09-18T07:33:44;4.38;;;2.33;;
11829;SDS011;5972;42.134;24.718;2023-09-18T07:36:11;6.32;;;2.60;;
11829;SDS011;5972;42.134;24.718;2023-09-18T07:38:40;4.07;;;2.17;;
11829;SDS011;5972;42.134;24.718;2023-09-18T07:41:09;5.07;;;2.47;;
11829;SDS011;5972;42.134;24.718;2023-09-18T07:43:37;4.85;;;2.55;;
11829;SDS011;5972;42.134;24.718;2023-09-18T07:46:04;5.22;;;2.78;;
11829;SDS011;5972;42.134;24.718;2023-09-18T07:48:31;4.13;;;2.47;;
11829;SDS011;5972;42.134;24.718;2023-09-18T07:50:57;7.00;;;2.70;;
11829;SDS011;5972;42.134;24.718;2023-09-18T07:53:24;4.88;;;2.42;;
11829;SDS011;5972;42.134;24.718;2023-09-18T07:55:55;6.85;;;2.40;;
11829;SDS011;5972;42.134;24.718;2023-09-18T07:58:25;5.72;;;2.50;;
11829;SDS011;5972;42.134;24.718;2023-09-18T08:00:53;3.92;;;2.30;;
11829;SDS011;5972;42.134;24.718;2023-09-18T08:03:20;1.90;;;1.73;;
11829;SDS011;5972;42.134;24.718;2023-09-18T08:05:49;3.38;;;2.30;;
11829;SDS011;5972;42.134;24.718;2023-09-18T08:08:16;2.60;;;2.40;;
11829;SDS011;5972;42.134;24.718;2023-09-18T08:10:42;3.78;;;2.15;;
11829;SDS011;5972;42.134;24.718;2023-09-18T08:13:09;5.20;;;2.53;;
11829;SDS011;5972;42.134;24.718;2023-09-18T08:15:38;6.78;;;2.58;;
11829;SDS011;5972;42.134;24.718;2023-09-18T08:18:04;6.80;;;3.05;;
11829;SDS011;5972;42.134;24.718;2023-09-18T08:20:31;5.63;;;2.83;;
11829;SDS011;5972;42.134;24.718;2023-09-18T08:23:00;3.92;;;2.75;;
11829;SDS011;5972;42.134;24.718;2023-09-18T08:25:30;4.43;;;2.50;;
11829;SDS011;5972;42.134;24.718;2023-09-18T08:27:57;5.10;;;2.40;;
11829;SDS011;5972;42.134;24.718;2023-09-18T08:30:24;4.22;;;2.95;;
11829;SDS011;5972;42.134;24.718;2023-09-18T08:32:52;8.60;;;2.80;;
11829;SDS011;5972;42.134;24.718;2023-09-18T08:35:19;5.72;;;2.67;;
11829;SDS011;5972;42.134;24.718;2023-09-18T08:37:47;6.10;;;2.55;;
11829;SDS011;5972;42.134;24.718;2023-09-18T08:40:13;4.57;;;2.65;;
11829;SDS011;5972;42.134;24.718;2023-09-18T08:42:44;3.05;;;2.47;;
11829;SDS011;5972;42.134;24.718;2023-09-18T08:45:14;4.63;;;2.50;;
11829;SDS011;5972;42.134;24.718;2023-09-18T08:47:45;3.40;;;2.60;;
11829;SDS011;5972;42.134;24.718;2023-09-18T08:50:14;3.42;;;2.28;;
11829;SDS011;5972;42.134;24.718;2023-09-18T08:52:42;3.75;;;2.40;;
11829;SDS011;5972;42.134;24.718;2023-09-18T08:55:09;6.32;;;2.42;;
11829;SDS011;5972;42.134;24.718;2023-09-18T08:57:38;3.63;;;2.35;;
11829;SDS011;5972;42.134;24.718;2023-09-18T09:00:08;3.85;;;2.38;;
11829;SDS011;5972;42.134;24.718;2023-09-18T09:02:41;3.03;;;2.35;;
11829;SDS011;5972;42.134;24.718;2023-09-18T09:05:08;4.30;;;2.78;;
11829;SDS011;5972;42.134;24.718;2023-09-18T09:07:36;3.78;;;2.45;;
11829;SDS011;5972;42.134;24.718;2023-09-18T09:10:03;2.40;;;2.20;;
11829;SDS011;5972;42.134;24.718;2023-09-18T09:15:18;4.43;;;2.83;;
11829;SDS011;5972;42.134;24.718;2023-09-18T09:17:45;2.88;;;2.25;;
11829;SDS011;5972;42.134;24.718;2023-09-18T09:20:13;4.13;;;2.60;;
11829;SDS011;5972;42.134;24.718;2023-09-18T09:22:43;3.67;;;2.60;;
11829;SDS011;5972;42.134;24.718;2023-09-18T09:25:25;3.38;;;2.20;;
11829;SDS011;5972;42.134;24.718;2023-09-18T09:27:54;2.35;;;2.15;;
11829;SDS011;5972;42.134;24.718;2023-09-18T09:30:22;3.05;;;2.53;;
11829;SDS011;5972;42.134;24.718;2023-09-18T09:32:52;3.45;;;2.28;;
11829;SDS011;5972;42.134;24.718;2023-09-18T09:35:21;3.10;;;2.15;;
11829;SDS011;5972;42.134;24.718;2023-09-18T09:37:53;3.88;;;2.65;;
11829;SDS011;5972;42.134;24.718;2023-09-18T09:40:22;2.90;;;2.30;;
11829;SDS011;5972;42.134;24.718;2023-09-18T09:42:51;3.58;;;2.47;;
11829;SDS011;5972;42.134;24.718;2023-09-18T09:45:19;2.83;;;2.33;;
11829;SDS011;5972;42.134;24.718;2023-09-18T09:47:46;4.97;;;2.42;;
11829;SDS011;5972;42.134;24.718;2023-09-18T09:50:14;3.92;;;2.47;;
11829;SDS011;5972;42.134;24.718;2023-09-18T09:52:44;2.65;;;2.40;;
11829;SDS011;5972;42.134;24.718;2023-09-18T09:55:25;4.72;;;2.72;;
11829;SDS011;5972;42.134;24.718;2023-09-18T09:57:54;4.80;;;2.75;;
11829;SDS011;5972;42.134;24.718;2023-09-18T10:00:25;5.57;;;2.80;;
11829;SDS011;5972;42.134;24.718;2023-09-18T10:02:57;4.78;;;2.25;;
11829;SDS011;5972;42.134;24.718;2023-09-18T10:05:27;6.15;;;2.50;;
11829;SDS011;5972;42.134;24.718;2023-09-18T10:07:57;7.47;;;2.90;;
11829;SDS011;5972;42.134;24.718;2023-09-18T10:10:25;5.57;;;3.10;;
11829;SDS011;5972;42.134;24.718;2023-09-18T10:12:57;3.92;;;2.45;;
11829;SDS011;5972;42.134;24.718;2023-09-18T10:15:29;3.67;;;2.75;;
11829;SDS011;5972;42.134;24.718;2023-09-18T10:18:03;6.05;;;2.83;;
11829;SDS011;5972;42.134;24.718;2023-09-18T10:20:33;3.92;;;2.60;;
11829;SDS011;5972;42.134;24.718;2023-09-18T10:23:09;4.05;;;2.40;;
11829;SDS011;5972;42.134;24.718;2023-09-18T10:25:47;5.35;;;2.60;;
11829;SDS011;5972;42.134;24.718;2023-09-18T10:28:16;4.78;;;2.80;;
11829;SDS011;5972;42.134;24.718;2023-09-18T10:30:43;3.10;;;2.22;;
11829;SDS011;5972;42.134;24.718;2023-09-18T10:33:11;5.40;;;2.28;;
11829;SDS011;5972;42.134;24.718;2023-09-18T10:35:38;4.60;;;2.60;;
11829;SDS011;5972;42.134;24.718;2023-09-18T10:38:06;3.40;;;2.60;;
11829;SDS011;5972;42.134;24.718;2023-09-18T10:40:34;3.47;;;2.58;;
11829;SDS011;5972;42.134;24.718;2023-09-18T10:43:03;4.93;;;2.75;;
11829;SDS011;5972;42.134;24.718;2023-09-18T10:45:34;3.08;;;2.13;;
11829;SDS011;5972;42.134;24.718;2023-09-18T10:48:02;4.05;;;2.30;;
11829;SDS011;5972;42.134;24.718;2023-09-18T10:50:34;3.63;;;2.15;;
11829;SDS011;5972;42.134;24.718;2023-09-18T10:53:02;3.25;;;2.40;;
11829;SDS011;5972;42.134;24.718;2023-09-18T10:55:29;3.67;;;2.20;;
11829;SDS011;5972;42.134;24.718;2023-09-18T10:57:56;2.70;;;2.15;;
11829;SDS011;5972;42.134;24.718;2023-09-18T11:00:26;3.35;;;2.35;;
11829;SDS011;5972;42.134;24.718;2023-09-18T11:03:08;2.95;;;2.22;;
11829;SDS011;5972;42.134;24.718;2023-09-18T11:05:37;2.50;;;2.00;;
11829;SDS011;5972;42.134;24.718;2023-09-18T11:11:00;4.70;;;2.15;;
11829;SDS011;5972;42.134;24.718;2023-09-18T11:13:37;2.35;;;1.95;;
11829;SDS011;5972;42.134;24.718;2023-09-18T11:16:33;3.47;;;2.22;;
11829;SDS011;5972;42.134;24.718;2023-09-18T11:19:13;4.82;;;2.45;;
11829;SDS011;5972;42.134;24.718;2023-09-18T11:21:44;2.10;;;1.90;;
11829;SDS011;5972;42.134;24.718;2023-09-18T11:24:15;3.53;;;2.03;;
11829;SDS011;5972;42.134;24.718;2023-09-18T11:26:44;2.92;;;2.13;;
11829;SDS011;5972;42.134;24.718;2023-09-18T11:29:13;2.67;;;2.25;;
11829;SDS011;5972;42.134;24.718;2023-09-18T11:31:44;4.00;;;2.42;;
11829;SDS011;5972;42.134;24.718;2023-09-18T11:34:14;4.22;;;1.98;;
11829;SDS011;5972;42.134;24.718;2023-09-18T11:36:42;2.45;;;2.20;;
11829;SDS011;5972;42.134;24.718;2023-09-18T11:39:09;3.60;;;2.42;;
11829;SDS011;5972;42.134;24.718;2023-09-18T11:41:37;5.95;;;2.22;;
11829;SDS011;5972;42.134;24.718;2023-09-18T11:47:03;3.40;;;2.30;;
11829;SDS011;5972;42.134;24.718;2023-09-18T11:49:37;4.95;;;2.20;;
11829;SDS011;5972;42.134;24.718;2023-09-18T11:52:07;3.83;;;2.10;;
11829;SDS011;5972;42.134;24.718;2023-09-18T11:54:36;2.13;;;1.90;;
11829;SDS011;5972;42.134;24.718;2023-09-18T11:57:05;2.45;;;2.15;;
11829;SDS011;5972;42.134;24.718;2023-09-18T11:59:33;2.47;;;2.10;;
11829;SDS011;5972;42.134;24.718;2023-09-18T12:02:03;4.90;;;2.55;;
11829;SDS011;5972;42.134;24.718;2023-09-18T12:04:34;5.22;;;2.20;;
11829;SDS011;5972;42.134;24.718;2023-09-18T12:07:02;4.65;;;2.20;;
11829;SDS011;5972;42.134;24.718;2023-09-18T12:09:31;2.72;;;2.10;;
11829;SDS011;5972;42.134;24.718;2023-09-18T12:11:59;2.55;;;2.05;;
11829;SDS011;5972;42.134;24.718;2023-09-18T12:14:30;2.08;;;1.90;;
11829;SDS011;5972;42.134;24.718;2023-09-18T12:16:59;3.60;;;2.20;;
11829;SDS011;5972;42.134;24.718;2023-09-18T12:19:32;3.58;;;2.30;;
11829;SDS011;5972;42.134;24.718;2023-09-18T12:22:02;2.78;;;2.20;;
11829;SDS011;5972;42.134;24.718;2023-09-18T12:24:30;2.53;;;2.15;;
11829;SDS011;5972;42.134;24.718;2023-09-18T12:27:00;2.15;;;1.98;;
11829;SDS011;5972;42.134;24.718;2023-09-18T12:29:28;3.33;;;2.05;;
11829;SDS011;5972;42.134;24.718;2023-09-18T12:31:59;3.65;;;2.10;;
11829;SDS011;5972;42.134;24.718;2023-09-18T12:34:33;3.97;;;2.00;;
11829;SDS011;5972;42.134;24.718;2023-09-18T12:37:01;2.63;;;2.03;;
11829;SDS011;5972;42.134;24.718;2023-09-18T12:39:31;3.78;;;2.45;;
11829;SDS011;5972;42.134;24.718;2023-09-18T12:42:00;2.33;;;2.03;;
11829;SDS011;5972;42.134;24.718;2023-09-18T12:44:30;2.20;;;2.00;;
11829;SDS011;5972;42.134;24.718;2023-09-18T12:47:08;2.78;;;2.10;;
11829;SDS011;5972;42.134;24.718;2023-09-18T12:49:41;4.82;;;2.30;;
11829;SDS011;5972;42.134;24.718;2023-09-18T12:52:10;3.28;;;2.13;;
11829;SDS011;5972;42.134;24.718;2023-09-18T12:54:40;2.30;;;2.10;;
11829;SDS011;5972;42.134;24.718;2023-09-18T12:57:14;3.28;;;2.20;;
11829;SDS011;5972;42.134;24.718;2023-09-18T12:59:43;2.15;;;2.05;;
11829;SDS011;5972;42.134;24.718;2023-09-18T13:02:12;2.92;;;1.98;;
11829;SDS011;5972;42.134;24.718;2023-09-18T13:04:47;3.58;;;2.03;;
11829;SDS011;5972;42.134;24.718;2023-09-18T13:07:21;2.58;;;2.20;;
11829;SDS011;5972;42.134;24.718;2023-09-18T13:09:58;4.25;;;2.30;;
11829;SDS011;5972;42.134;24.718;2023-09-18T13:12:39;2.67;;;2.40;;
11829;SDS011;5972;42.134;24.718;2023-09-18T13:15:10;3.45;;;2.25;;
11829;SDS011;5972;42.134;24.718;2023-09-18T13:17:39;3.90;;;2.40;;
11829;SDS011;5972;42.134;24.718;2023-09-18T13:20:15;2.97;;;2.53;;
11829;SDS011;5972;42.134;24.718;2023-09-18T13:22:48;2.53;;;2.30;;
11829;SDS011;5972;42.134;24.718;2023-09-18T13:25:20;2.22;;;2.03;;
11829;SDS011;5972;42.134;24.718;2023-09-18T13:27:48;2.33;;;2.13;;
11829;SDS011;5972;42.134;24.718;2023-09-18T13:30:17;2.50;;;2.30;;
11829;SDS011;5972;42.134;24.718;2023-09-18T13:32:47;4.22;;;2.22;;
11829;SDS011;5972;42.134;24.718;2023-09-18T13:35:16;3.83;;;2.05;;
11829;SDS011;5972;42.134;24.718;2023-09-18T13:37:44;5.80;;;2.50;;
11829;SDS011;5972;42.134;24.718;2023-09-18T13:40:12;3.13;;;2.28;;
11829;SDS011;5972;42.134;24.718;2023-09-18T13:42:38;5.63;;;2.00;;
11829;SDS011;5972;42.134;24.718;2023-09-18T13:45:06;4.20;;;2.25;;
11829;SDS011;5972;42.134;24.718;2023-09-18T13:47:34;5.05;;;2.40;;
11829;SDS011;5972;42.134;24.718;2023-09-18T13:50:02;3.83;;;2.38;;
11829;SDS011;5972;42.134;24.718;2023-09-18T13:52:32;3.58;;;2.17;;
11829;SDS011;5972;42.134;24.718;2023-09-18T13:55:01;4.70;;;2.40;;
11829;SDS011;5972;42.134;24.718;2023-09-18T13:57:30;4.00;;;2.25;;
11829;SDS011;5972;42.134;24.718;2023-09-18T13:59:57;6.03;;;2.28;;
11829;SDS011;5972;42.134;24.718;2023-09-18T14:02:24;5.07;;;2.30;;
11829;SDS011;5972;42.134;24.718;2023-09-18T14:04:52;4.63;;;2.40;;
11829;SDS011;5972;42.134;24.718;2023-09-18T14:07:19;5.63;;;2.20;;
11829;SDS011;5972;42.134;24.718;2023-09-18T14:09:48;3.45;;;2.22;;
11829;SDS011;5972;42.134;24.718;2023-09-18T14:12:15;3.15;;;2.05;;
11829;SDS011;5972;42.134;24.718;2023-09-18T14:14:42;4.90;;;2.40;;
11829;SDS011;5972;42.134;24.718;2023-09-18T14:17:09;2.92;;;2.50;;
11829;SDS011;5972;42.134;24.718;2023-09-18T14:19:36;4.00;;;2.75;;
11829;SDS011;5972;42.134;24.718;2023-09-18T14:22:03;5.07;;;2.10;;
11829;SDS011;5972;42.134;24.718;2023-09-18T14:24:30;5.93;;;2.50;;
11829;SDS011;5972;42.134;24.718;2023-09-18T14:27:06;3.95;;;2.35;;
11829;SDS011;5972;42.134;24.718;2023-09-18T14:29:41;3.65;;;2.58;;
11829;SDS011;5972;42.134;24.718;2023-09-18T14:32:08;3.03;;;2.20;;
11829;SDS011;5972;42.134;24.718;2023-09-18T14:34:35;2.60;;;2.38;;
11829;SDS011;5972;42.134;24.718;2023-09-18T14:37:02;2.53;;;2.28;;
11829;SDS011;5972;42.134;24.718;2023-09-18T14:39:30;3.97;;;2.20;;
11829;SDS011;5972;42.134;24.718;2023-09-18T14:41:56;2.65;;;2.33;;
11829;SDS011;5972;42.134;24.718;2023-09-18T14:44:26;2.58;;;2.28;;
11829;SDS011;5972;42.134;24.718;2023-09-18T14:46:53;2.67;;;2.35;;
11829;SDS011;5972;42.134;24.718;2023-09-18T14:49:21;3.20;;;2.42;;
11829;SDS011;5972;42.134;24.718;2023-09-18T14:51:48;6.13;;;2.45;;
11829;SDS011;5972;42.134;24.718;2023-09-18T14:54:18;3.50;;;2.28;;
11829;SDS011;5972;42.134;24.718;2023-09-18T14:56:44;3.90;;;2.22;;
11829;SDS011;5972;42.134;24.718;2023-09-18T14:59:12;4.32;;;2.33;;
11829;SDS011;5972;42.134;24.718;2023-09-18T15:01:40;4.95;;;2.80;;